createdAt,value
2022-10-05T00:00:13.773Z,10.08
2022-10-05T00:03:09.594Z,10.13
2022-10-05T00:05:36.100Z,10.11
2022-10-05T00:08:22.114Z,10.14
2022-10-05T00:10:50.801Z,10.19
2022-10-05T00:13:23.676Z,10.22
2022-10-05T00:15:57.584Z,10.27
2022-10-05T00:18:23.991Z,10.32
2022-10-05T00:20:50.348Z,10.32
2022-10-05T00:23:29.199Z,10.20
2022-10-05T00:26:10.760Z,10.14
2022-10-05T00:28:37.306Z,10.19
2022-10-05T00:31:14.795Z,10.25
2022-10-05T00:33:41.227Z,10.29
2022-10-05T00:36:07.898Z,10.31
2022-10-05T00:38:34.489Z,10.33
2022-10-05T00:41:22.927Z,10.35
2022-10-05T00:44:16.787Z,10.40
2022-10-05T00:46:53.689Z,10.43
2022-10-05T00:49:43.118Z,10.43
2022-10-05T00:52:59.366Z,10.41
2022-10-05T00:55:45.728Z,10.40
2022-10-05T00:58:27.311Z,10.43
2022-10-05T01:01:14.600Z,10.46
2022-10-05T01:04:15.499Z,10.46
2022-10-05T01:06:55.803Z,10.44
2022-10-05T01:09:47.203Z,10.43
2022-10-05T01:12:41.135Z,10.41
2022-10-05T01:15:26.629Z,10.26
2022-10-05T01:18:17.313Z,10.19
2022-10-05T01:21:05.466Z,10.20
2022-10-05T01:23:53.816Z,10.26
2022-10-05T01:26:57.735Z,10.20
2022-10-05T01:29:43.178Z,10.20
2022-10-05T01:32:31.073Z,10.26
2022-10-05T01:35:07.962Z,10.23
2022-10-05T01:37:58.237Z,10.14
2022-10-05T01:40:36.236Z,10.15
2022-10-05T01:43:18.275Z,10.15
2022-10-05T01:45:59.932Z,10.15
2022-10-05T01:48:38.689Z,10.19
2022-10-05T01:51:27.200Z,10.24
2022-10-05T01:54:17.517Z,10.21
2022-10-05T01:57:11.852Z,10.16
2022-10-05T02:00:07.163Z,10.19
2022-10-05T02:03:07.744Z,10.17
2022-10-05T02:05:51.064Z,10.19
2022-10-05T02:08:26.340Z,10.23
2022-10-05T02:11:05.560Z,10.22
2022-10-05T02:13:44.913Z,10.20
2022-10-05T02:16:24.118Z,10.24
2022-10-05T02:19:02.933Z,10.26
2022-10-05T02:21:33.591Z,10.30
2022-10-05T02:24:08.107Z,10.32
2022-10-05T02:26:36.058Z,10.34
2022-10-05T02:29:08.924Z,10.23
2022-10-05T02:31:42.750Z,10.17
2022-10-05T02:34:29.934Z,10.19
2022-10-05T02:37:25.472Z,10.21
2022-10-05T02:40:14.471Z,10.23
2022-10-05T02:42:59.457Z,10.25
2022-10-05T02:45:48.073Z,10.23
2022-10-05T02:48:21.948Z,10.19
2022-10-05T02:50:57.613Z,10.08
2022-10-05T02:53:41.786Z,10.09
2022-10-05T02:56:32.800Z,10.07
2022-10-05T02:59:05.262Z,10.13
2022-10-05T03:01:40.065Z,10.18
2022-10-05T03:04:42.317Z,10.24
2022-10-05T03:07:17.185Z,10.24
2022-10-05T03:10:01.415Z,10.25
2022-10-05T03:12:57.605Z,10.23
2022-10-05T03:16:03.086Z,10.20
2022-10-05T03:18:54.414Z,10.24
2022-10-05T03:21:52.525Z,10.26
2022-10-05T03:24:32.226Z,10.21
2022-10-05T03:27:05.453Z,10.20
2022-10-05T03:29:53.736Z,10.22
2022-10-05T03:32:25.327Z,10.27
2022-10-05T03:34:56.097Z,10.26
2022-10-05T03:37:30.224Z,10.25
2022-10-05T03:40:15.463Z,10.29
2022-10-05T03:43:16.533Z,10.29
2022-10-05T03:46:13.726Z,10.30
2022-10-05T03:48:52.180Z,10.31
2022-10-05T03:51:32.470Z,10.26
2022-10-05T03:54:09.573Z,10.28
2022-10-05T03:56:41.230Z,10.32
2022-10-05T03:59:16.233Z,10.32
2022-10-05T04:01:51.497Z,10.32
2022-10-05T04:04:25.845Z,10.33
2022-10-05T04:06:54.513Z,10.33
2022-10-05T04:09:27.472Z,10.31
2022-10-05T04:12:29.444Z,10.31
2022-10-05T04:15:08.473Z,10.32
2022-10-05T04:17:54.004Z,10.30
2022-10-05T04:20:43.844Z,10.25
2022-10-05T04:23:14.206Z,10.21
2022-10-05T04:26:03.705Z,10.20
2022-10-05T04:28:56.540Z,10.19
2022-10-05T04:31:51.705Z,10.16
2022-10-05T04:34:42.120Z,10.14
2022-10-05T04:37:19.546Z,10.14
2022-10-05T04:40:05.568Z,10.10
2022-10-05T04:43:06.823Z,10.10
2022-10-05T04:45:55.884Z,10.07
2022-10-05T04:48:45.535Z,10.04
2022-10-05T04:51:18.561Z,10.03
2022-10-05T04:54:08.080Z,10.01
2022-10-05T04:56:40.208Z,9.99
2022-10-05T04:59:26.860Z,9.99
2022-10-05T05:02:31.641Z,9.98
2022-10-05T05:05:22.984Z,9.97
2022-10-05T05:08:19.649Z,9.96
2022-10-05T05:10:52.349Z,9.92
2022-10-05T05:13:28.126Z,9.93
2022-10-05T05:16:24.344Z,9.93
2022-10-05T05:19:18.860Z,9.92
2022-10-05T05:22:03.739Z,9.91
2022-10-05T05:25:16.647Z,9.93
2022-10-05T05:28:19.292Z,9.93
2022-10-05T05:30:56.225Z,9.91
2022-10-05T05:33:40.586Z,9.87
2022-10-05T05:36:26.016Z,9.90
2022-10-05T05:39:26.313Z,9.93
2022-10-05T05:42:17.280Z,9.95
2022-10-05T05:44:59.620Z,9.98
2022-10-05T05:47:39.571Z,10.00
2022-10-05T05:50:37.537Z,10.02
2022-10-05T05:53:16.241Z,10.04
2022-10-05T05:55:52.436Z,10.03
2022-10-05T05:58:26.782Z,10.04
2022-10-05T06:01:03.805Z,10.07
2022-10-05T06:03:39.112Z,10.08
2022-10-05T06:06:16.455Z,10.07
2022-10-05T06:09:04.311Z,10.11
2022-10-05T06:11:46.901Z,10.16
2022-10-05T06:14:22.489Z,10.21
2022-10-05T06:17:05.000Z,10.26
2022-10-05T06:19:33.988Z,10.28
2022-10-05T06:22:14.459Z,10.33
2022-10-05T06:25:07.358Z,10.40
2022-10-05T06:27:38.186Z,10.42
2022-10-05T06:30:17.080Z,10.47
2022-10-05T06:32:50.178Z,10.54
2022-10-05T06:35:44.635Z,10.59
2022-10-05T06:38:14.177Z,10.62
2022-10-05T06:41:14.873Z,10.66
2022-10-05T06:44:09.163Z,10.73
2022-10-05T06:46:51.956Z,10.79
2022-10-05T06:49:57.605Z,10.85
2022-10-05T06:52:59.838Z,10.89
2022-10-05T06:55:33.905Z,10.95
2022-10-05T06:58:16.048Z,11.04
2022-10-05T07:01:02.622Z,11.11
2022-10-05T07:03:44.595Z,11.19
2022-10-05T07:06:22.715Z,11.24
2022-10-05T07:09:26.875Z,11.29
2022-10-05T07:12:02.401Z,11.38
2022-10-05T07:14:50.009Z,11.42
2022-10-05T07:17:28.419Z,11.44
2022-10-05T07:20:30.966Z,11.48
2022-10-05T07:23:02.867Z,11.57
2022-10-05T07:26:17.077Z,11.64
2022-10-05T07:28:57.429Z,11.72
2022-10-05T07:31:45.077Z,11.75
2022-10-05T07:34:36.457Z,11.81
2022-10-05T07:37:33.831Z,11.88
2022-10-05T07:40:18.817Z,11.96
2022-10-05T07:43:04.356Z,12.05
2022-10-05T07:45:51.945Z,12.11
2022-10-05T07:48:21.937Z,12.18
2022-10-05T07:50:59.419Z,12.23
2022-10-05T07:53:37.252Z,12.30
2022-10-05T07:56:36.545Z,12.40
2022-10-05T07:59:14.533Z,12.49
2022-10-05T08:01:47.852Z,12.54
2022-10-05T08:04:27.272Z,12.60
2022-10-05T08:07:10.988Z,12.64
2022-10-05T08:09:48.548Z,12.68
2022-10-05T08:12:33.634Z,12.73
2022-10-05T08:15:17.326Z,12.79
2022-10-05T08:17:52.244Z,12.86
2022-10-05T08:20:32.330Z,12.90
2022-10-05T08:23:35.399Z,12.97
2022-10-05T08:26:13.761Z,13.10
2022-10-05T08:28:59.752Z,13.20
2022-10-05T08:31:33.051Z,13.28
2022-10-05T08:34:25.650Z,13.34
2022-10-05T08:37:03.320Z,13.36
2022-10-05T08:39:35.836Z,13.43
2022-10-05T08:42:40.412Z,13.50
2022-10-05T08:45:30.088Z,13.61
2022-10-05T08:48:22.324Z,13.70
2022-10-05T08:51:20.452Z,13.84
2022-10-05T08:54:11.461Z,14.03
2022-10-05T08:57:02.601Z,14.19
2022-10-05T08:59:31.629Z,14.30
2022-10-05T09:02:13.419Z,14.38
2022-10-05T09:05:05.384Z,14.44
2022-10-05T09:07:53.544Z,14.46
2022-10-05T09:10:31.757Z,14.49
2022-10-05T09:13:26.822Z,14.48
2022-10-05T09:16:27.615Z,14.44
2022-10-05T09:19:32.084Z,14.44
2022-10-05T09:22:37.694Z,14.46
2022-10-05T09:25:42.053Z,14.52
2022-10-05T09:28:50.149Z,14.57
2022-10-05T09:32:04.801Z,14.58
2022-10-05T09:35:04.658Z,14.60
2022-10-05T09:38:02.442Z,14.59
2022-10-05T09:40:51.097Z,14.62
2022-10-05T09:43:45.481Z,14.65
2022-10-05T09:46:11.965Z,14.63
2022-10-05T09:48:55.962Z,14.62
2022-10-05T09:51:51.617Z,14.61
2022-10-05T09:54:37.389Z,14.62
2022-10-05T09:57:17.617Z,14.69
2022-10-05T10:00:29.173Z,14.78
2022-10-05T10:03:28.336Z,14.90
2022-10-05T10:06:13.169Z,14.97
2022-10-05T10:09:05.865Z,15.07
2022-10-05T10:12:17.961Z,15.15
2022-10-05T10:15:18.346Z,15.28
2022-10-05T10:18:06.394Z,15.44
2022-10-05T10:20:38.020Z,15.60
2022-10-05T10:23:30.089Z,15.78
2022-10-05T10:25:56.473Z,15.96
2022-10-05T10:28:44.704Z,16.11
2022-10-05T10:31:36.734Z,16.25
2022-10-05T10:34:29.056Z,16.35
2022-10-05T10:37:23.391Z,16.40
2022-10-05T10:40:06.604Z,16.45
2022-10-05T10:42:47.150Z,16.48
2022-10-05T10:45:40.873Z,16.48
2022-10-05T10:48:30.867Z,16.45
2022-10-05T10:51:11.913Z,16.49
2022-10-05T10:54:11.936Z,16.55
2022-10-05T10:56:53.450Z,16.57
2022-10-05T10:59:42.196Z,16.53
2022-10-05T11:02:27.587Z,16.54
2022-10-05T11:05:29.076Z,16.47
2022-10-05T11:08:33.597Z,16.44
2022-10-05T11:11:30.457Z,16.37
2022-10-05T11:14:20.415Z,16.28
2022-10-05T11:17:05.725Z,16.28
2022-10-05T11:20:06.168Z,16.34
2022-10-05T11:22:58.526Z,16.34
2022-10-05T11:25:47.907Z,16.32
2022-10-05T11:28:40.162Z,16.36
2022-10-05T11:31:26.140Z,16.38
2022-10-05T11:34:11.480Z,16.31
2022-10-05T11:36:49.762Z,16.25
2022-10-05T11:39:38.749Z,16.20
2022-10-05T11:42:42.657Z,16.17
2022-10-05T11:45:21.152Z,16.12
2022-10-05T11:48:00.129Z,16.08
2022-10-05T11:50:56.589Z,16.03
2022-10-05T11:53:34.383Z,16.04
2022-10-05T11:56:05.582Z,16.05
2022-10-05T11:58:40.621Z,16.07
2022-10-05T12:01:34.148Z,16.06
2022-10-05T12:04:29.933Z,16.05
2022-10-05T12:07:36.780Z,16.06
2022-10-05T12:10:32.088Z,16.08
2022-10-05T12:13:04.311Z,16.06
2022-10-05T12:15:49.838Z,16.06
2022-10-05T12:18:43.141Z,16.05
2022-10-05T12:21:19.870Z,16.06
2022-10-05T12:23:53.254Z,16.07
2022-10-05T12:26:29.543Z,16.05
2022-10-05T12:29:15.445Z,16.07
2022-10-05T12:32:08.118Z,16.13
2022-10-05T12:34:56.522Z,16.18
2022-10-05T12:37:47.428Z,16.24
2022-10-05T12:40:20.286Z,16.29
2022-10-05T12:42:57.132Z,16.37
2022-10-05T12:45:52.621Z,16.40
2022-10-05T12:48:28.810Z,16.42
2022-10-05T12:51:24.627Z,16.39
2022-10-05T12:53:53.917Z,16.38
2022-10-05T12:56:44.085Z,16.35
2022-10-05T12:59:26.748Z,16.33
2022-10-05T13:01:53.210Z,16.30
2022-10-05T13:04:34.397Z,16.28
2022-10-05T13:07:27.897Z,16.23
2022-10-05T13:10:22.058Z,16.18
2022-10-05T13:13:32.295Z,16.13
2022-10-05T13:16:06.918Z,16.07
2022-10-05T13:18:58.478Z,16.04
2022-10-05T13:21:49.303Z,16.00
2022-10-05T13:24:30.189Z,15.97
2022-10-05T13:27:07.829Z,15.95
2022-10-05T13:30:01.574Z,15.92
2022-10-05T13:32:36.567Z,15.90
2022-10-05T13:35:16.235Z,15.87
2022-10-05T13:38:05.683Z,15.87
2022-10-05T13:40:44.584Z,15.87
2022-10-05T13:43:22.979Z,15.84
2022-10-05T13:46:00.814Z,15.82
2022-10-05T13:48:55.219Z,15.79
2022-10-05T13:51:57.192Z,15.76
2022-10-05T13:54:37.380Z,15.72
2022-10-05T13:57:29.449Z,15.68
2022-10-05T14:00:12.850Z,15.65
2022-10-05T14:02:45.661Z,15.61
2022-10-05T14:05:21.807Z,15.58
2022-10-05T14:08:01.373Z,15.56
2022-10-05T14:10:47.078Z,15.54
2022-10-05T14:13:30.985Z,15.53
2022-10-05T14:16:24.845Z,15.52
2022-10-05T14:18:54.640Z,15.53
2022-10-05T14:21:32.536Z,15.54
2022-10-05T14:24:45.164Z,15.55
2022-10-05T14:27:21.457Z,15.47
2022-10-05T14:30:13.677Z,15.47
2022-10-05T14:33:03.409Z,15.51
2022-10-05T14:35:54.165Z,15.53
2022-10-05T14:38:32.266Z,15.54
2022-10-05T14:41:18.742Z,15.55
2022-10-05T14:44:04.722Z,15.53
2022-10-05T14:46:32.500Z,15.52
2022-10-05T14:49:21.637Z,15.51
2022-10-05T14:51:52.915Z,15.50
2022-10-05T14:54:26.834Z,15.50
2022-10-05T14:57:12.036Z,15.47
2022-10-05T15:00:00.204Z,15.45
2022-10-05T15:02:48.869Z,15.40
2022-10-05T15:05:36.038Z,15.35
2022-10-05T15:08:11.664Z,15.29
2022-10-05T15:10:49.458Z,15.28
2022-10-05T15:13:20.687Z,15.27
2022-10-05T15:15:54.154Z,15.25
2022-10-05T15:18:44.137Z,15.22
2022-10-05T15:21:25.948Z,15.23
2022-10-05T15:24:08.738Z,15.20
2022-10-05T15:26:47.113Z,15.16
2022-10-05T15:29:32.392Z,15.15
2022-10-05T15:32:28.981Z,15.16
2022-10-05T15:35:35.556Z,15.15
2022-10-05T15:38:02.015Z,15.13
2022-10-05T15:40:58.286Z,15.12
2022-10-05T15:43:30.687Z,15.10
2022-10-05T15:46:17.631Z,15.08
2022-10-05T15:48:58.421Z,15.05
2022-10-05T15:51:55.063Z,15.00
2022-10-05T15:54:50.539Z,14.97
2022-10-05T15:57:25.525Z,14.88
2022-10-05T16:00:29.588Z,14.78
2022-10-05T16:03:32.452Z,14.65
2022-10-05T16:06:58.365Z,14.59
2022-10-05T16:09:44.315Z,14.56
2022-10-05T16:12:29.493Z,14.52
2022-10-05T16:15:28.088Z,14.50
2022-10-05T16:18:17.923Z,14.44
2022-10-05T16:20:56.365Z,14.41
2022-10-05T16:23:44.858Z,14.36
2022-10-05T16:26:45.679Z,14.30
2022-10-05T16:29:34.895Z,14.25
2022-10-05T16:32:21.898Z,14.21
2022-10-05T16:35:04.745Z,14.13
2022-10-05T16:37:48.299Z,14.09
2022-10-05T16:40:18.624Z,14.09
2022-10-05T16:43:03.488Z,14.11
2022-10-05T16:46:12.288Z,14.13
2022-10-05T16:48:44.399Z,14.10
2022-10-05T16:51:29.757Z,14.07
2022-10-05T16:54:20.439Z,14.02
2022-10-05T16:57:05.791Z,13.96
2022-10-05T17:00:05.978Z,13.93
2022-10-05T17:02:45.787Z,13.88
2022-10-05T17:05:44.607Z,13.83
2022-10-05T17:08:32.864Z,13.78
2022-10-05T17:11:21.735Z,13.76
2022-10-05T17:14:30.656Z,13.80
2022-10-05T17:17:19.328Z,13.86
2022-10-05T17:20:24.403Z,13.82
2022-10-05T17:23:01.614Z,13.81
2022-10-05T17:25:47.069Z,13.78
2022-10-05T17:28:41.136Z,13.72
2022-10-05T17:31:27.897Z,13.70
2022-10-05T17:34:15.970Z,13.65
2022-10-05T17:36:57.108Z,13.64
2022-10-05T17:39:50.454Z,13.65
2022-10-05T17:42:44.705Z,13.62
2022-10-05T17:45:14.224Z,13.57
2022-10-05T17:48:03.673Z,13.58
2022-10-05T17:51:01.603Z,13.58
2022-10-05T17:54:02.062Z,13.63
2022-10-05T17:56:53.767Z,13.62
2022-10-05T17:59:55.087Z,13.65
2022-10-05T18:02:40.026Z,13.66
2022-10-05T18:05:13.918Z,13.65
2022-10-05T18:07:48.228Z,13.63
2022-10-05T18:10:28.219Z,13.63
2022-10-05T18:12:58.065Z,13.63
2022-10-05T18:15:24.374Z,13.59
2022-10-05T18:17:56.792Z,13.59
2022-10-05T18:20:23.349Z,13.64
2022-10-05T18:22:52.946Z,13.66
2022-10-05T18:25:32.413Z,13.63
2022-10-05T18:28:11.198Z,13.60
2022-10-05T18:30:54.360Z,13.60
2022-10-05T18:33:58.964Z,13.59
2022-10-05T18:37:01.311Z,13.61
2022-10-05T18:39:35.247Z,13.57
2022-10-05T18:42:06.576Z,13.56
2022-10-05T18:44:56.939Z,13.58
2022-10-05T18:47:38.532Z,13.59
2022-10-05T18:50:38.807Z,13.56
2022-10-05T18:53:38.663Z,13.55
2022-10-05T18:56:25.394Z,13.53
2022-10-05T18:59:02.738Z,13.49
2022-10-05T19:01:55.403Z,13.43
2022-10-05T19:04:33.725Z,13.40
2022-10-05T19:07:20.451Z,13.42
2022-10-05T19:10:15.451Z,13.37
2022-10-05T19:13:05.773Z,13.29
2022-10-05T19:15:43.729Z,13.20
2022-10-05T19:18:24.273Z,13.14
2022-10-05T19:21:17.044Z,13.09
2022-10-05T19:24:09.347Z,13.07
2022-10-05T19:26:56.073Z,13.08
2022-10-05T19:30:03.092Z,13.11
2022-10-05T19:32:54.735Z,13.12
2022-10-05T19:36:00.358Z,13.07
2022-10-05T19:38:39.501Z,13.03
2022-10-05T19:41:20.642Z,13.02
2022-10-05T19:44:18.583Z,13.06
2022-10-05T19:46:58.012Z,13.05
2022-10-05T19:49:42.971Z,13.04
2022-10-05T19:52:21.815Z,13.03
2022-10-05T19:55:04.095Z,13.00
2022-10-05T19:57:31.246Z,13.02
2022-10-05T19:59:59.337Z,13.03
2022-10-05T20:02:27.418Z,13.03
2022-10-05T20:05:05.848Z,13.02
2022-10-05T20:07:33.847Z,13.02
2022-10-05T20:10:30.134Z,13.01
2022-10-05T20:12:59.619Z,12.98
2022-10-05T20:15:48.378Z,12.95
2022-10-05T20:19:02.778Z,12.95
2022-10-05T20:21:46.766Z,12.90
2022-10-05T20:24:16.787Z,12.85
2022-10-05T20:27:15.775Z,12.83
2022-10-05T20:29:44.770Z,12.81
2022-10-05T20:32:17.145Z,12.82
2022-10-05T20:34:46.736Z,12.81
2022-10-05T20:37:16.108Z,12.80
2022-10-05T20:39:43.287Z,12.76
2022-10-05T20:42:14.971Z,12.75
2022-10-05T20:44:42.206Z,12.77
2022-10-05T20:47:09.696Z,12.75
2022-10-05T20:49:40.474Z,12.76
2022-10-05T20:52:28.055Z,12.72
2022-10-05T20:54:58.273Z,12.72
2022-10-05T20:57:26.036Z,12.69
2022-10-05T20:59:53.039Z,12.70
2022-10-05T21:02:26.201Z,12.71
2022-10-05T21:04:52.860Z,12.67
2022-10-05T21:07:21.198Z,12.61
2022-10-05T21:09:48.518Z,12.57
2022-10-05T21:12:15.996Z,12.58
2022-10-05T21:14:42.893Z,12.57
2022-10-05T21:17:13.003Z,12.60
2022-10-05T21:19:39.713Z,12.57
2022-10-05T21:22:07.919Z,12.53
2022-10-05T21:24:36.371Z,12.55
2022-10-05T21:27:08.210Z,12.57
2022-10-05T21:29:36.535Z,12.58
2022-10-05T21:32:07.881Z,12.57
2022-10-05T21:34:34.640Z,12.58
2022-10-05T21:37:01.238Z,12.57
2022-10-05T21:39:27.693Z,12.54
2022-10-05T21:41:54.633Z,12.52
2022-10-05T21:44:21.567Z,12.53
2022-10-05T21:46:48.970Z,12.52
2022-10-05T21:49:18.898Z,12.52
2022-10-05T21:51:47.055Z,12.52
2022-10-05T21:54:18.945Z,12.51
2022-10-05T21:56:50.920Z,12.53
2022-10-05T21:59:26.033Z,12.52
2022-10-05T22:01:52.536Z,12.48
2022-10-05T22:04:19.013Z,12.41
2022-10-05T22:06:53.970Z,12.39
2022-10-05T22:09:20.498Z,12.40
2022-10-05T22:11:48.674Z,12.36
2022-10-05T22:14:15.825Z,12.33
2022-10-05T22:16:45.500Z,12.29
2022-10-05T22:19:19.158Z,12.25
2022-10-05T22:21:52.298Z,12.18
2022-10-05T22:24:22.760Z,12.12
2022-10-05T22:26:50.976Z,12.08
2022-10-05T22:29:18.351Z,12.06
2022-10-05T22:31:48.097Z,12.07
2022-10-05T22:34:16.005Z,12.09
2022-10-05T22:36:42.752Z,12.09
2022-10-05T22:39:09.255Z,12.08
2022-10-05T22:41:35.767Z,12.08
2022-10-05T22:44:02.300Z,12.07
2022-10-05T22:46:28.895Z,12.04
2022-10-05T22:48:55.382Z,11.97
2022-10-05T22:51:21.902Z,11.99
2022-10-05T22:53:48.596Z,12.03
2022-10-05T22:56:15.882Z,12.07
2022-10-05T22:58:46.310Z,12.06
2022-10-05T23:01:16.182Z,12.00
2022-10-05T23:03:43.619Z,11.97
2022-10-05T23:06:13.488Z,11.96
2022-10-05T23:08:46.939Z,11.99
2022-10-05T23:11:20.066Z,11.98
2022-10-05T23:13:51.669Z,11.86
2022-10-05T23:16:20.685Z,11.85
2022-10-05T23:18:49.246Z,11.81
2022-10-05T23:21:17.515Z,11.80
2022-10-05T23:23:46.867Z,11.82
2022-10-05T23:26:13.478Z,11.87
2022-10-05T23:28:45.908Z,11.86
2022-10-05T23:31:18.623Z,11.82
2022-10-05T23:33:45.610Z,11.82
2022-10-05T23:36:24.189Z,11.81
2022-10-05T23:38:51.127Z,11.76
2022-10-05T23:41:19.387Z,11.70
2022-10-05T23:43:49.232Z,11.66
2022-10-05T23:46:17.289Z,11.63
2022-10-05T23:48:43.882Z,11.66
2022-10-05T23:51:13.235Z,11.71
2022-10-05T23:53:39.782Z,11.61
2022-10-05T23:56:06.648Z,11.57
2022-10-05T23:58:35.886Z,11.56
